Time;durP1;ratioP1;P1;durP2;ratioP2;P2;SDS_P1;SDS_P2;PMS_P1;PMS_P2;Temp;Humidity;BMP_temperature;BMP_pressure;BME280_temperature;BME280_humidity;BME280_pressure;Samples;Min_cycle;Max_cycle;Signal;HPM_P1;HPM_P2
2022/07/15 00:00:17;;;;;;;1.38;1.23;;;;;;;20.93;47.32;98929.78;4920920;28;102767;-59
2022/07/15 00:02:47;;;;;;;3.63;2.05;;;;;;;20.76;46.81;98929.81;4920103;28;103057;-60
2022/07/15 00:05:15;;;;;;;1.75;1.55;;;;;;;21.01;46.60;98932.44;4903156;28;103333;-59
2022/07/15 00:07:43;;;;;;;2.13;1.25;;;;;;;21.09;46.72;98933.31;4920938;28;103025;-60
2022/07/15 00:10:20;;;;;;;2.40;1.48;;;;;;;21.09;47.19;98929.78;4920651;28;104269;-59
2022/07/15 00:12:50;;;;;;;4.10;2.22;;;;;;;21.01;47.33;98927.91;4907476;28;103133;-59
2022/07/15 00:15:20;;;;;;;2.35;1.60;;;;;;;21.04;47.69;98927.59;4917642;28;103241;-59
2022/07/15 00:17:51;;;;;;;1.50;1.40;;;;;;;21.02;47.54;98929.59;4917246;28;102658;-59
2022/07/15 00:20:21;;;;;;;2.38;1.10;;;;;;;20.98;48.26;98928.25;4913754;28;102778;-59
2022/07/15 00:22:51;;;;;;;2.40;1.30;;;;;;;21.01;47.87;98930.59;4913763;28;103321;-59
2022/07/15 00:25:19;;;;;;;2.35;1.67;;;;;;;20.90;48.26;98928.28;4917044;28;103395;-60
2022/07/15 00:27:54;;;;;;;3.83;1.60;;;;;;;20.83;48.79;98932.63;4918365;28;102706;-59
2022/07/15 00:30:23;;;;;;;1.77;1.50;;;;;;;20.69;49.31;98922.59;4901189;28;104435;-61
2022/07/15 00:32:53;;;;;;;1.58;1.48;;;;;;;20.63;49.43;98929.47;4902627;28;103278;-60
2022/07/15 00:35:21;;;;;;;2.45;1.60;;;;;;;20.51;50.04;98924.63;4918188;28;103257;-60
2022/07/15 00:37:49;;;;;;;1.83;1.55;;;;;;;20.39;50.18;98925.97;4921334;28;102638;-60
2022/07/15 00:40:20;;;;;;;5.03;2.10;;;;;;;20.23;51.18;98922.25;4932687;28;102768;-61
2022/07/15 00:42:48;;;;;;;1.88;1.55;;;;;;;20.18;50.88;98929.94;4919035;28;103281;-60
2022/07/15 00:45:18;;;;;;;2.85;1.75;;;;;;;20.03;52.29;98925.41;4919489;28;103257;-60
2022/07/15 00:47:47;;;;;;;2.38;1.80;;;;;;;19.96;52.18;98933.25;4920512;28;102662;-59
2022/07/15 00:50:18;;;;;;;3.30;1.95;;;;;;;19.97;52.04;98934.94;4902535;28;102692;-60
2022/07/15 00:52:54;;;;;;;1.95;1.60;;;;;;;19.97;52.64;98934.94;4920620;28;103274;-60
2022/07/15 00:55:23;;;;;;;4.28;2.22;;;;;;;19.82;53.23;98933.88;4919741;28;103559;-60
2022/07/15 00:57:57;;;;;;;3.70;2.30;;;;;;;19.84;53.18;98936.41;4918862;28;102711;-60
2022/07/15 01:00:28;;;;;;;2.28;1.80;;;;;;;19.76;53.31;98933.72;4920817;28;102763;-60
2022/07/15 01:02:58;;;;;;;3.65;1.60;;;;;;;19.77;53.03;98935.38;4896804;28;103442;-61
2022/07/15 01:05:29;;;;;;;5.72;2.45;;;;;;;19.60;54.30;98939.84;4902877;28;103285;-60
2022/07/15 01:07:57;;;;;;;4.43;2.25;;;;;;;19.35;55.06;98938.03;4903831;28;102690;-61
2022/07/15 01:10:26;;;;;;;3.28;1.92;;;;;;;19.34;54.50;98941.72;4904277;28;102775;-61
2022/07/15 01:12:54;;;;;;;3.05;2.40;;;;;;;19.26;55.04;98936.31;4899409;28;103520;-59
2022/07/15 01:15:27;;;;;;;5.53;2.40;;;;;;;19.16;55.33;98940.94;4901598;28;104233;-60
2022/07/15 01:17:56;;;;;;;2.35;1.95;;;;;;;19.07;55.74;98938.22;4903016;28;103391;-58
2022/07/15 01:20:25;;;;;;;2.67;1.95;;;;;;;19.14;55.50;98942.94;4901134;28;102749;-59
2022/07/15 01:22:58;;;;;;;4.13;2.40;;;;;;;19.11;55.86;98946.78;4900437;28;103679;-59
2022/07/15 01:25:53;;;;;;;6.47;2.50;;;;;;;18.86;56.64;98951.13;4913398;28;103275;-59
2022/07/15 01:28:23;;;;;;;2.58;1.70;;;;;;;18.93;56.29;98957.53;4899517;28;102849;-61
2022/07/15 01:30:52;;;;;;;4.85;2.53;;;;;;;18.66;57.28;98956.84;4913394;28;102961;-60
2022/07/15 01:33:21;;;;;;;3.25;2.00;;;;;;;18.91;56.15;98954.19;4900949;28;103410;-59
2022/07/15 01:35:49;;;;;;;3.05;2.00;;;;;;;18.95;55.67;98950.19;4916285;28;103318;-60
2022/07/15 01:38:20;;;;;;;1.80;1.70;;;;;;;18.95;56.15;98954.69;4918337;28;103054;-60
2022/07/15 01:40:54;;;;;;;3.03;2.08;;;;;;;18.76;56.94;98950.41;4902461;28;104018;-60
2022/07/15 01:43:22;;;;;;;4.13;2.33;;;;;;;18.74;56.92;98948.88;4900699;28;103962;-60
2022/07/15 01:45:50;;;;;;;2.40;1.92;;;;;;;18.79;56.08;98958.13;4900044;28;103456;-60
2022/07/15 01:51:32;;;;;;;3.72;2.03;;;;;;;18.66;57.13;98965.72;4918559;28;104009;-59
2022/07/15 01:54:05;;;;;;;2.97;2.38;;;;;;;18.59;57.62;98959.28;4916312;28;103267;-59
2022/07/15 01:56:36;;;;;;;2.47;2.13;;;;;;;18.58;57.34;98956.78;4900155;28;105161;-59
2022/07/15 01:59:04;;;;;;;2.95;2.10;;;;;;;18.43;57.72;98954.63;4899940;28;102975;-59
2022/07/15 02:01:33;;;;;;;2.53;2.33;;;;;;;18.34;57.60;98955.53;4913173;28;104116;-60
2022/07/15 02:04:07;;;;;;;2.92;2.30;;;;;;;18.35;57.65;98945.69;4902360;28;105132;-59
2022/07/15 02:06:35;;;;;;;2.45;2.22;;;;;;;18.31;58.13;98944.31;4916964;28;103200;-59
2022/07/15 02:09:05;;;;;;;2.95;1.92;;;;;;;18.12;58.48;98955.16;4899378;28;103972;-59
2022/07/15 02:11:37;;;;;;;3.30;2.53;;;;;;;17.99;59.25;98946.69;4897483;28;102778;-59
2022/07/15 02:14:08;;;;;;;2.13;1.90;;;;;;;17.89;59.54;98954.75;4929271;28;104194;-59
2022/07/15 02:16:36;;;;;;;3.33;2.25;;;;;;;17.96;59.31;98951.31;4900650;28;103413;-59
2022/07/15 02:19:09;;;;;;;3.38;2.15;;;;;;;17.98;59.33;98950.34;4901115;28;102987;-59
2022/07/15 02:21:37;;;;;;;3.47;2.60;;;;;;;17.67;61.15;98950.69;4901483;28;102801;-59
2022/07/15 02:24:07;;;;;;;2.97;2.47;;;;;;;17.69;60.93;98953.19;4915359;28;104347;-60
2022/07/15 02:26:35;;;;;;;4.93;2.20;;;;;;;17.70;60.76;98953.06;4917332;28;103220;-60
2022/07/15 02:29:03;;;;;;;2.67;2.38;;;;;;;17.63;61.45;98946.59;4899344;28;103336;-61
2022/07/15 02:31:32;;;;;;;3.58;2.45;;;;;;;17.53;61.75;98947.63;4899884;28;102707;-59
2022/07/15 02:34:03;;;;;;;2.38;2.00;;;;;;;17.55;61.44;98951.84;4910804;28;103359;-59
2022/07/15 02:36:32;;;;;;;2.78;2.20;;;;;;;17.58;61.43;98951.56;4897751;28;103399;-60
2022/07/15 02:39:03;;;;;;;3.47;2.33;;;;;;;17.43;62.05;98947.69;4916547;28;102774;-59
2022/07/15 02:41:35;;;;;;;3.97;2.47;;;;;;;17.34;62.48;98953.91;4898974;28;104078;-59
2022/07/15 02:44:08;;;;;;;6.15;2.30;;;;;;;17.32;62.40;98945.19;4919663;28;104048;-59
2022/07/15 02:46:38;;;;;;;5.10;2.53;;;;;;;17.33;62.49;98946.88;4905958;28;105501;-59
2022/07/15 02:49:06;;;;;;;3.78;2.00;;;;;;;17.33;62.40;98954.88;4919370;28;103968;-59
2022/07/15 02:51:37;;;;;;;2.75;2.00;;;;;;;17.34;62.44;98951.25;4898111;28;103681;-59
2022/07/15 02:54:04;;;;;;;;;;;;;;;17.32;63.22;98954.03;4900941;28;103288;-60
2022/07/15 02:56:35;;;;;;;2.17;1.98;;;;;;;17.92;61.05;98954.44;4899050;28;104167;-60
2022/07/15 02:59:02;;;;;;;3.78;2.70;;;;;;;17.31;64.09;98954.19;4898132;28;102740;-60
2022/07/15 03:01:31;;;;;;;4.50;2.70;;;;;;;17.01;64.88;98967.81;4898462;28;102659;-59
2022/07/15 03:04:00;;;;;;;4.13;2.53;;;;;;;16.93;65.11;98964.97;4898717;28;104288;-59
2022/07/15 03:06:29;;;;;;;3.58;2.63;;;;;;;16.96;65.23;98964.69;4914727;28;105368;-60
2022/07/15 03:08:59;;;;;;;3.53;2.40;;;;;;;16.89;65.38;98974.28;4898844;28;102659;-59
2022/07/15 03:11:29;;;;;;;2.80;2.15;;;;;;;16.87;65.19;98965.59;4899527;28;102933;-60
2022/07/15 03:13:58;;;;;;;2.40;2.20;;;;;;;16.98;64.52;98968.09;4898561;28;106128;-60
2022/07/15 03:16:26;;;;;;;3.50;2.00;;;;;;;16.99;64.38;98969.75;4900305;28;103310;-59
2022/07/15 03:18:57;;;;;;;3.97;2.50;;;;;;;17.01;64.69;98973.13;4896217;28;102805;-59
2022/07/15 03:21:25;;;;;;;3.92;2.25;;;;;;;16.91;65.44;98972.31;4899140;28;102751;-59
2022/07/15 03:23:54;;;;;;;4.20;2.53;;;;;;;16.90;65.37;98965.31;4900105;28;103488;-59
2022/07/15 03:26:22;;;;;;;4.07;2.33;;;;;;;16.86;65.52;98970.06;4896692;28;103296;-59
2022/07/15 03:28:50;;;;;;;2.33;2.13;;;;;;;16.71;66.18;98967.00;4897474;28;103053;-60
2022/07/15 03:31:20;;;;;;;4.47;2.83;;;;;;;16.52;67.21;98966.16;4897206;28;103936;-60
2022/07/15 03:33:48;;;;;;;2.83;2.30;;;;;;;16.56;66.83;98979.09;4897598;28;104979;-59
2022/07/15 03:36:25;;;;;;;2.63;2.42;;;;;;;16.62;66.64;98973.19;4898375;28;103261;-59
2022/07/15 03:38:54;;;;;;;3.80;2.40;;;;;;;16.71;65.72;98969.69;4898683;28;102828;-59
2022/07/15 03:41:22;;;;;;;3.03;2.30;;;;;;;16.80;65.00;98968.81;4899188;28;102762;-59
2022/07/15 03:43:50;;;;;;;2.92;2.22;;;;;;;16.81;64.81;98978.50;4912685;28;105027;-59
2022/07/15 03:46:20;;;;;;;2.72;2.35;;;;;;;16.91;64.33;98972.31;4903730;28;104677;-59
2022/07/15 03:48:53;;;;;;;3.63;2.60;;;;;;;16.69;66.34;98987.66;4898751;28;102750;-60
2022/07/15 03:51:24;;;;;;;3.05;2.47;;;;;;;16.69;66.34;98979.66;4902650;28;104084;-59
2022/07/15 03:53:52;;;;;;;2.22;2.00;;;;;;;16.85;64.90;98983.53;4899317;28;104207;-59
2022/07/15 03:56:20;;;;;;;2.67;2.47;;;;;;;16.80;66.01;98982.16;4899214;28;103211;-59
2022/07/15 03:58:48;;;;;;;4.05;2.40;;;;;;;16.79;65.62;98979.63;4914000;28;102697;-60
2022/07/15 04:01:17;;;;;;;3.05;2.38;;;;;;;16.85;65.58;98984.38;4900286;28;103151;-59
2022/07/15 04:03:48;;;;;;;2.47;2.28;;;;;;;16.91;65.80;98986.50;4914486;28;103286;-59
2022/07/15 04:06:17;;;;;;;3.00;2.60;;;;;;;16.94;65.49;98990.69;4900396;28;103242;-59
2022/07/15 04:08:46;;;;;;;3.42;3.00;;;;;;;16.72;67.07;98986.53;4897587;28;102880;-59
2022/07/15 04:11:14;;;;;;;2.92;2.50;;;;;;;16.74;66.88;98988.06;4931460;28;102675;-59
2022/07/15 04:13:43;;;;;;;4.15;2.95;;;;;;;16.71;67.46;98993.69;4895499;28;103367;-59
2022/07/15 04:16:12;;;;;;;2.95;2.33;;;;;;;16.60;67.63;98993.84;4898036;28;105327;-59
2022/07/15 04:18:41;;;;;;;2.75;2.20;;;;;;;16.80;66.52;98989.31;4897559;28;102721;-60
2022/07/15 04:21:11;;;;;;;3.33;2.10;;;;;;;17.01;64.89;98989.16;4896658;28;104044;-62
2022/07/15 04:23:40;;;;;;;2.33;2.13;;;;;;;17.19;64.79;98998.06;4895065;28;103348;-59
2022/07/15 04:26:10;;;;;;;7.18;3.15;;;;;;;17.14;65.28;98990.50;4899988;28;103465;-58
2022/07/15 04:28:42;;;;;;;3.17;2.88;;;;;;;16.88;66.77;98996.59;4901179;28;103045;-57
2022/07/15 04:31:11;;;;;;;3.70;3.00;;;;;;;16.50;67.88;99003.66;4916492;28;102649;-59
2022/07/15 04:33:49;;;;;;;3.78;2.83;;;;;;;16.53;68.45;98995.38;4907000;28;104313;-58
2022/07/15 04:36:18;;;;;;;3.80;3.20;;;;;;;16.64;68.21;99000.59;4929439;28;103245;-58
2022/07/15 04:38:47;;;;;;;4.22;2.83;;;;;;;16.65;68.20;99002.25;4894196;28;103272;-58
2022/07/15 04:41:15;;;;;;;2.33;2.00;;;;;;;17.05;65.83;98993.19;4915052;28;102761;-58
2022/07/15 04:43:44;;;;;;;2.83;2.03;;;;;;;17.28;65.28;98997.22;4906353;28;104231;-58
2022/07/15 04:46:14;;;;;;;3.08;2.72;;;;;;;17.43;65.20;98993.09;4896918;28;103420;-59
2022/07/15 04:51:34;;;;;;;3.72;2.35;;;;;;;17.56;65.16;98995.44;4895545;28;102854;-60
2022/07/15 04:54:02;;;;;;;2.05;1.92;;;;;;;17.62;65.21;98987.69;4911362;28;103365;-58
2022/07/15 04:56:37;;;;;;;2.88;2.10;;;;;;;17.64;65.15;98996.38;4925608;28;103248;-58
2022/07/15 04:59:06;;;;;;;3.17;2.38;;;;;;;17.70;64.78;98989.59;4928715;28;103829;-59
2022/07/15 05:01:38;;;;;;;3.55;2.42;;;;;;;17.75;64.51;98998.88;4896514;28;103059;-58
2022/07/15 05:04:06;;;;;;;2.42;2.15;;;;;;;17.76;64.55;98992.53;4911484;28;104242;-59
2022/07/15 05:06:37;;;;;;;2.30;2.10;;;;;;;17.87;63.21;98995.00;4924333;28;103034;-58
2022/07/15 05:09:07;;;;;;;3.00;2.20;;;;;;;17.98;63.56;98993.09;4926237;28;102785;-58
2022/07/15 05:11:35;;;;;;;7.22;2.67;;;;;;;17.80;65.79;98996.56;4924964;28;104068;-60
2022/07/15 05:14:04;;;;;;;3.17;2.88;;;;;;;17.66;66.39;98998.91;4900554;28;105605;-60
2022/07/15 05:16:34;;;;;;;4.18;3.30;;;;;;;17.45;66.34;99007.13;4898251;28;104121;-60
2022/07/15 05:19:03;;;;;;;7.93;3.63;;;;;;;17.35;67.32;99000.97;4895516;28;102946;-59
2022/07/15 05:21:31;;;;;;;5.50;2.97;;;;;;;17.39;67.22;99002.38;4903621;28;102900;-58
2022/07/15 05:24:01;;;;;;;9.23;3.65;;;;;;;17.42;65.64;99010.09;4897993;28;104184;-58
2022/07/15 05:26:49;;;;;;;4.32;2.72;;;;;;;17.68;65.24;98995.13;4910241;28;103549;-58
2022/07/15 05:29:17;;;;;;;3.72;3.20;;;;;;;17.76;63.92;98995.22;4894548;28;102759;-58
2022/07/15 05:31:46;;;;;;;3.22;2.63;;;;;;;17.95;62.23;99000.44;4911059;28;103257;-60
2022/07/15 05:34:16;;;;;;;3.35;2.22;;;;;;;18.24;61.83;99008.28;4897265;28;103180;-59
2022/07/15 05:36:44;;;;;;;6.70;2.97;;;;;;;18.08;62.54;99012.63;4897412;28;103471;-58
2022/07/15 05:39:17;;;;;;;4.07;2.55;;;;;;;18.29;62.95;99005.13;4889874;28;102817;-61
2022/07/15 05:41:45;;;;;;;3.75;2.28;;;;;;;18.29;61.22;99010.47;4900862;28;104072;-60
2022/07/15 05:44:17;;;;;;;4.60;2.55;;;;;;;18.52;61.48;99011.75;4916965;28;103241;-60
2022/07/15 05:46:50;;;;;;;2.08;1.88;;;;;;;18.42;61.49;99010.94;4892205;28;105883;-60
2022/07/15 05:49:18;;;;;;;4.03;2.05;;;;;;;18.73;61.71;99017.63;4890011;28;103077;-60
2022/07/15 05:51:51;;;;;;;2.97;2.08;;;;;;;18.80;61.13;99016.00;4902548;28;102995;-59
2022/07/15 05:54:21;;;;;;;2.42;1.90;;;;;;;19.06;60.74;99016.88;4896352;28;103295;-58
2022/07/15 05:56:49;;;;;;;1.63;1.52;;;;;;;19.28;60.80;99014.69;4895524;28;103311;-61
2022/07/15 05:59:22;;;;;;;2.25;1.75;;;;;;;19.39;60.70;99017.97;4903460;28;102703;-60
2022/07/15 06:01:49;;;;;;;4.68;2.15;;;;;;;19.02;60.00;99026.22;4897383;28;102777;-60
2022/07/15 06:04:19;;;;;;;2.47;1.90;;;;;;;19.34;60.19;99019.41;4892239;28;103403;-60
2022/07/15 06:06:48;;;;;;;3.42;2.00;;;;;;;19.57;58.54;99031.28;4921372;28;103239;-60
2022/07/15 06:09:16;;;;;;;2.47;1.95;;;;;;;19.27;58.77;99023.69;4899107;28;102793;-61
2022/07/15 06:11:46;;;;;;;4.03;2.88;;;;;;;19.35;59.12;99021.06;4896421;28;102954;-60
2022/07/15 06:14:13;;;;;;;4.35;2.05;;;;;;;19.67;58.02;99026.66;4909695;28;103963;-60
2022/07/15 06:16:41;;;;;;;2.33;2.10;;;;;;;19.43;58.20;99023.81;4913208;28;102797;-59
2022/07/15 06:19:12;;;;;;;2.35;2.08;;;;;;;19.64;58.63;99021.63;4897793;28;103116;-59
2022/07/15 06:21:41;;;;;;;3.45;2.58;;;;;;;19.48;58.94;99027.72;4895777;28;102805;-60
2022/07/15 06:24:09;;;;;;;2.50;1.85;;;;;;;19.94;57.93;99013.00;4901711;28;103232;-60
2022/07/15 06:26:39;;;;;;;4.03;2.40;;;;;;;20.15;56.48;99013.41;4920396;28;103268;-58
2022/07/15 06:29:09;;;;;;;2.92;1.60;;;;;;;20.17;56.57;99024.00;4899840;28;103718;-60
2022/07/15 06:31:37;;;;;;;3.92;1.85;;;;;;;20.30;56.62;99015.47;4902093;28;103326;-60
2022/07/15 06:34:05;;;;;;;2.63;1.77;;;;;;;20.52;55.46;99023.75;4917193;28;103997;-58
2022/07/15 06:36:33;;;;;;;5.05;2.03;;;;;;;20.57;55.85;99012.53;4919157;28;104119;-58
2022/07/15 06:39:01;;;;;;;3.38;1.70;;;;;;;20.42;55.21;99006.13;4915548;28;102806;-58
2022/07/15 06:41:31;;;;;;;2.42;2.03;;;;;;;20.69;53.65;99011.16;4904653;28;103725;-59
2022/07/15 06:44:00;;;;;;;2.65;1.55;;;;;;;20.93;53.26;99011.19;4916850;28;104057;-58
2022/07/15 06:46:45;;;;;;;4.18;2.13;;;;;;;20.41;50.93;99017.84;4915558;28;105054;-59
2022/07/15 06:49:13;;;;;;;1.98;1.30;;;;;;;20.76;52.57;99014.88;4915023;28;104195;-59
2022/07/15 06:51:41;;;;;;;6.65;1.85;;;;;;;21.06;51.45;99016.88;4916999;28;102764;-58
2022/07/15 06:54:09;;;;;;;3.10;1.85;;;;;;;21.05;52.43;99015.19;4917128;28;103240;-58
2022/07/15 06:56:39;;;;;;;3.67;1.80;;;;;;;20.90;49.64;99010.69;4901331;28;103372;-59
2022/07/15 06:59:07;;;;;;;5.57;1.80;;;;;;;20.80;48.19;99010.84;4899390;28;102642;-58
2022/07/15 07:01:38;;;;;;;3.40;1.67;;;;;;;21.23;48.96;99007.81;4902903;28;102712;-60
2022/07/15 07:04:08;;;;;;;2.42;1.52;;;;;;;20.80;48.99;99014.38;4918971;28;103993;-60
2022/07/15 07:06:36;;;;;;;4.50;1.63;;;;;;;20.89;48.47;99014.34;4897676;28;103189;-59
2022/07/15 07:09:04;;;;;;;2.80;1.85;;;;;;;20.89;49.02;99015.22;4900589;28;102753;-60
2022/07/15 07:11:32;;;;;;;4.07;1.80;;;;;;;21.19;49.11;99011.84;4916613;28;102946;-59
2022/07/15 07:14:00;;;;;;;4.80;1.50;;;;;;;20.98;48.24;99008.84;4918474;28;104462;-58
2022/07/15 07:16:29;;;;;;;3.90;1.92;;;;;;;21.10;47.56;99012.88;4918140;28;103230;-59
2022/07/15 07:18:58;;;;;;;2.90;1.48;;;;;;;21.16;47.10;99006.00;4901646;28;102701;-59
2022/07/15 07:21:27;;;;;;;2.92;1.70;;;;;;;21.41;46.63;99009.47;4916966;28;102714;-59
2022/07/15 07:23:59;;;;;;;5.32;1.70;;;;;;;21.52;46.58;99012.63;4900790;28;104486;-59
2022/07/15 07:26:27;;;;;;;4.55;1.50;;;;;;;21.53;46.03;99005.41;4916306;28;103211;-58
2022/07/15 07:28:55;;;;;;;4.57;1.30;;;;;;;21.66;44.09;99000.31;4917312;28;102748;-59
2022/07/15 07:31:26;;;;;;;3.75;1.05;;;;;;;22.17;45.25;99012.38;4913995;28;102739;-59
2022/07/15 07:33:56;;;;;;;1.98;1.00;;;;;;;22.06;44.81;98999.34;4914757;28;104096;-58
2022/07/15 07:36:41;;;;;;;2.72;1.50;;;;;;;21.93;41.27;99005.28;4893033;28;104197;-59
2022/07/15 07:39:33;;;;;;;3.72;2.00;;;;;;;22.29;43.18;99009.09;4907804;28;102740;-60
2022/07/15 07:42:13;;;;;;;2.65;1.55;;;;;;;22.91;41.04;99001.78;4917436;28;102710;-59
2022/07/15 07:44:42;;;;;;;2.65;1.33;;;;;;;23.35;42.10;98993.78;4919686;28;104471;-60
2022/07/15 07:47:10;;;;;;;2.63;1.67;;;;;;;23.73;41.24;98997.25;4920187;28;103382;-59
2022/07/15 07:49:42;;;;;;;3.42;1.40;;;;;;;23.69;40.41;98987.88;4918670;28;102605;-59
2022/07/15 07:52:11;;;;;;;4.70;1.30;;;;;;;23.63;42.09;98999.41;4914953;28;102678;-59
2022/07/15 07:54:40;;;;;;;5.32;1.77;;;;;;;23.35;41.24;98993.78;4900628;28;104180;-59
2022/07/15 07:57:08;;;;;;;2.80;1.30;;;;;;;23.20;40.86;98995.63;4905683;28;103225;-59
2022/07/15 07:59:36;;;;;;;4.85;1.50;;;;;;;23.24;40.19;98999.63;4898435;28;102875;-59
2022/07/15 08:02:04;;;;;;;4.80;1.60;;;;;;;24.31;40.36;98990.94;4913243;28;104719;-59
2022/07/15 08:04:33;;;;;;;2.03;1.30;;;;;;;24.91;39.02;98989.69;4914416;28;103844;-59
2022/07/15 08:07:01;;;;;;;2.92;1.55;;;;;;;24.84;38.07;98986.94;4895728;28;103267;-59
2022/07/15 08:09:30;;;;;;;4.97;1.70;;;;;;;24.90;38.86;98988.03;4912917;28;103098;-59
2022/07/15 08:12:01;;;;;;;5.55;1.65;;;;;;;24.68;38.96;98982.59;4896844;28;102855;-60
2022/07/15 08:14:29;;;;;;;5.05;1.50;;;;;;;24.18;38.55;98980.00;4897685;28;103301;-59
2022/07/15 08:16:57;;;;;;;2.55;1.40;;;;;;;24.50;38.06;98976.81;4913311;28;103819;-60
2022/07/15 08:19:26;;;;;;;2.03;1.38;;;;;;;24.99;39.63;98989.53;4898240;28;102781;-59
2022/07/15 08:21:54;;;;;;;2.90;1.17;;;;;;;25.53;38.30;98982.47;4913081;28;103215;-60
2022/07/15 08:24:22;;;;;;;2.45;1.55;;;;;;;26.31;37.41;98987.44;4917081;28;104000;-59
2022/07/15 08:26:54;;;;;;;1.95;1.42;;;;;;;27.14;36.93;98987.97;4915691;28;103191;-60
2022/07/15 08:29:25;;;;;;;1.80;1.45;;;;;;;26.88;36.33;98986.94;4915585;28;102680;-61
2022/07/15 08:31:53;;;;;;;2.30;1.38;;;;;;;26.54;35.73;98983.50;4913529;28;102807;-61
2022/07/15 08:34:21;;;;;;;2.13;1.25;;;;;;;26.50;35.89;98985.78;4916610;28;103289;-60
2022/07/15 08:36:49;;;;;;;6.22;1.60;;;;;;;26.95;35.46;98985.03;4916418;28;103260;-61
2022/07/15 08:39:17;;;;;;;3.30;1.50;;;;;;;26.37;36.74;98986.59;4902406;28;102752;-61
2022/07/15 08:41:45;;;;;;;1.20;1.10;;;;;;;27.04;35.15;98981.09;4921159;28;102652;-59
2022/07/15 08:44:14;;;;;;;2.20;1.35;;;;;;;28.00;34.35;98976.72;4919553;28;103745;-62
2022/07/15 08:46:47;;;;;;;2.10;1.27;;;;;;;28.76;35.24;98979.47;4919775;28;103247;-60
2022/07/15 08:49:17;;;;;;;2.67;1.33;;;;;;;28.89;32.74;98987.53;4919148;28;103025;-63
2022/07/15 08:51:47;;;;;;;1.30;1.05;;;;;;;28.58;32.36;98985.63;4922123;28;104061;-60
2022/07/15 08:54:16;;;;;;;4.65;1.55;;;;;;;28.67;33.30;98986.22;4919533;28;103299;-62
2022/07/15 08:56:45;;;;;;;3.03;1.23;;;;;;;29.24;32.72;98986.03;4921908;28;103296;-62
2022/07/15 08:59:16;;;;;;;1.88;1.10;;;;;;;29.77;33.29;98988.19;4922003;28;102569;-62
2022/07/15 09:01:46;;;;;;;2.40;1.00;;;;;;;29.87;33.28;98977.63;4921956;28;104069;-63
2022/07/15 09:04:17;;;;;;;2.33;1.58;;;;;;;29.57;32.01;98982.13;4917605;28;103204;-62
2022/07/15 09:06:48;;;;;;;3.05;1.60;;;;;;;28.29;33.70;98978.09;4905479;28;104066;-62
2022/07/15 09:09:27;;;;;;;2.78;1.42;;;;;;;29.53;32.21;98991.81;4924981;28;102707;-61
2022/07/15 09:11:58;;;;;;;4.15;1.17;;;;;;;29.75;34.32;98987.59;4917090;28;104325;-62
2022/07/15 09:14:41;;;;;;;3.05;1.83;;;;;;;26.98;33.87;98992.75;4918259;28;103929;-62
2022/07/15 09:17:24;;;;;;;2.60;1.60;;;;;;;28.07;36.06;98993.84;4919772;28;103412;-62
2022/07/15 09:20:01;;;;;;;4.20;1.40;;;;;;;28.40;32.15;98990.13;4919666;28;102913;-63
2022/07/15 09:22:32;;;;;;;2.97;1.35;;;;;;;29.50;34.02;98984.09;4918619;28;102759;-62
2022/07/15 09:25:08;;;;;;;4.25;1.30;;;;;;;30.10;32.27;98977.75;4905552;28;103682;-62
2022/07/15 09:27:38;;;;;;;4.75;1.88;;;;;;;28.90;33.27;98982.94;4920245;28;103184;-62
2022/07/15 09:36:06;;;;;;;1.90;1.48;;;;;;;29.43;32.73;98983.31;4918088;28;103305;-61
2022/07/15 09:38:43;;;;;;;1.85;1.20;;;;;;;29.99;30.50;98977.69;4916846;28;103197;-61
2022/07/15 09:41:22;;;;;;;2.65;1.50;;;;;;;30.32;31.26;98981.66;4917022;28;102855;-61
2022/07/15 09:43:52;;;;;;;3.80;1.50;;;;;;;29.23;33.09;98987.06;4916762;28;102598;-62
2022/07/15 09:46:24;;;;;;;2.73;1.60;;;;;;;29.61;31.80;98983.34;4917589;28;103918;-62
2022/07/15 09:48:53;;;;;;;5.80;1.67;;;;;;;28.71;33.39;98992.91;4910446;28;103249;-62
2022/07/15 09:51:23;;;;;;;3.65;1.65;;;;;;;27.65;32.79;98997.09;4920652;28;102775;-61
2022/07/15 09:53:51;;;;;;;5.07;1.73;;;;;;;29.64;33.28;98993.78;4903323;28;103173;-62
2022/07/15 09:56:26;;;;;;;3.17;1.43;;;;;;;29.42;33.97;98995.28;4904185;28;103308;-61
2022/07/15 09:58:54;;;;;;;2.33;1.58;;;;;;;30.50;32.16;98982.69;4919421;28;103237;-61
2022/07/15 10:01:26;;;;;;;2.47;1.30;;;;;;;31.13;31.12;98983.00;4919594;28;102863;-61
2022/07/15 10:03:54;;;;;;;3.38;1.77;;;;;;;29.19;32.13;98977.63;4920982;28;102662;-61
2022/07/15 10:06:27;;;;;;;3.47;1.60;;;;;;;29.31;32.17;98989.50;4920913;28;103435;-61
2022/07/15 10:08:57;;;;;;;7.90;1.60;;;;;;;28.02;34.73;98993.63;4905048;28;103180;-60
2022/07/15 10:11:25;;;;;;;2.38;1.30;;;;;;;28.04;32.99;98986.13;4902813;28;102709;-60
2022/07/15 10:14:38;;;;;;;5.63;1.98;;;;;;;28.44;33.14;98980.50;4918771;28;103399;-61
2022/07/15 10:17:28;;;;;;;4.47;1.92;;;;;;;27.32;33.78;98993.56;4918745;28;103287;-61
2022/07/15 10:20:18;;;;;;;3.25;1.90;;;;;;;27.56;34.63;98987.53;4913796;28;103733;-61
2022/07/15 10:22:58;;;;;;;2.10;1.33;;;;;;;28.70;32.95;98975.75;4898075;28;102772;-61
2022/07/15 10:25:43;;;;;;;2.15;1.65;;;;;;;30.10;31.54;98974.19;4920412;28;102594;-61
2022/07/15 10:28:16;;;;;;;2.13;1.52;;;;;;;28.73;33.17;98969.03;4917981;28;103054;-61
2022/07/15 10:30:46;;;;;;;5.55;2.05;;;;;;;27.67;34.63;98977.91;4902541;28;104011;-63
2022/07/15 10:33:20;;;;;;;2.78;2.00;;;;;;;26.72;34.65;98973.75;4920256;28;103022;-62
2022/07/15 10:35:49;;;;;;;4.43;1.98;;;;;;;27.33;34.17;98965.41;4920100;28;103840;-61
2022/07/15 10:38:27;;;;;;;2.97;2.05;;;;;;;27.21;33.51;98970.63;4918900;28;103369;-62
2022/07/15 10:41:05;;;;;;;3.20;1.88;;;;;;;28.86;34.04;98959.97;4909496;28;103442;-61
2022/07/15 10:43:48;;;;;;;3.10;1.70;;;;;;;30.53;33.22;98960.44;4911499;28;102941;-61
2022/07/15 10:46:30;;;;;;;4.70;1.85;;;;;;;30.28;32.11;98947.75;4913388;28;103007;-62
2022/07/15 10:49:31;;;;;;;5.32;2.10;;;;;;;28.77;31.76;98948.53;4909859;28;103326;-62
2022/07/15 10:52:14;;;;;;;4.55;2.00;;;;;;;29.05;33.63;98939.94;4903678;28;103313;-61
2022/07/15 10:54:44;;;;;;;4.40;2.10;;;;;;;28.17;33.35;98941.78;4912104;28;102708;-62
2022/07/15 10:57:15;;;;;;;5.20;1.83;;;;;;;27.13;35.05;98953.75;4915153;28;102860;-62
2022/07/15 10:59:55;;;;;;;4.43;2.00;;;;;;;29.21;34.16;98939.34;4917075;28;104390;-61
2022/07/15 11:02:25;;;;;;;5.50;2.20;;;;;;;28.94;33.22;98944.19;4915160;28;103237;-61
2022/07/15 11:05:20;;;;;;;2.60;1.80;;;;;;;29.55;33.28;98940.69;4914666;28;102928;-61
2022/07/15 11:07:50;;;;;;;4.55;2.13;;;;;;;28.06;34.19;98924.31;4912945;28;102665;-62
2022/07/15 11:10:23;;;;;;;4.70;2.10;;;;;;;27.51;35.33;98927.63;4911851;28;103321;-61
2022/07/15 11:13:05;;;;;;;5.40;2.00;;;;;;;27.84;34.21;98924.81;4906668;28;104044;-61
2022/07/15 11:15:34;;;;;;;3.57;2.30;;;;;;;28.70;34.30;98920.56;4904257;28;103125;-62
2022/07/15 11:18:04;;;;;;;4.72;1.90;;;;;;;28.98;31.90;98922.81;4901567;28;102777;-60
2022/07/15 11:20:39;;;;;;;6.00;2.42;;;;;;;28.25;34.48;98918.97;4891037;28;103325;-60
2022/07/15 11:23:09;;;;;;;2.50;2.00;;;;;;;27.88;33.50;98924.16;4922621;28;103350;-61
2022/07/15 11:25:39;;;;;;;6.43;2.10;;;;;;;29.27;32.25;98917.56;4909384;28;102636;-61
2022/07/15 11:28:10;;;;;;;4.90;1.97;;;;;;;28.86;33.46;98911.84;4910739;28;103040;-62
2022/07/15 11:30:44;;;;;;;7.03;2.40;;;;;;;28.12;33.52;98918.00;4914354;28;103266;-61
2022/07/15 11:33:15;;;;;;;3.10;2.10;;;;;;;28.59;32.27;98913.09;4908366;28;103220;-62
2022/07/15 11:35:45;;;;;;;7.75;2.30;;;;;;;28.31;32.54;98912.66;4911750;28;103030;-62
2022/07/15 11:38:15;;;;;;;4.30;2.08;;;;;;;28.14;34.09;98913.19;4914452;28;102718;-61
2022/07/15 11:46:18;;;;;;;3.60;2.05;;;;;;;28.11;34.47;98921.78;4916030;28;102746;-62
2022/07/15 11:48:51;;;;;;;3.10;2.10;;;;;;;29.38;33.36;98912.41;4915731;28;104508;-61
2022/07/15 11:51:25;;;;;;;5.65;2.25;;;;;;;27.63;34.88;98907.75;4915713;28;103804;-61
2022/07/15 11:53:55;;;;;;;3.67;2.30;;;;;;;27.79;34.68;98905.63;4921746;28;103256;-62
2022/07/15 11:56:24;;;;;;;4.25;2.05;;;;;;;27.34;34.96;98907.41;4911412;28;102666;-61
2022/07/15 11:58:57;;;;;;;4.57;2.13;;;;;;;28.30;33.94;98902.84;4913448;28;103975;-62